Glasgow, MT

7:01 PM MDT on September 19, 2014 (GMT -0600)
nashua | Change Station
CLOSE
Current Station
Personal Weather Station
Location: Nashua, MT
Elevation: 2156 ft
Nearby Weather Stations

Elev 2156 ft 48.11 °N, 106.45 °W | Updated 14 seconds ago

Clear
Clear
64.7 °F
Feels Like 64.7 °F
N
0.0
Wind Variable Wind from North
Gusts 0.0 mph

Today
High -- | Low -- °F
--% Chance of Precip.
Yesterday
High -- | Low -- °F
Precip. -- in
6:48 AM 7:09 PM
Waning Crescent, 16% visible
Pressure 29.80 in
Visibility 10.0 miles
Clouds Scattered Clouds 12000 ft
Dew Point 37 °F
Humidity 36%
Rainfall 0.00 in
Snow Depth 0 in , 0 in , 0 in
UV 0 out of 12
Pollen 5.10 out of 12
Air Quality Not available.
Flu Activity Not available.
METAR KGGW 200053Z AUTO 30004KT 10SM SCT120 21/12 A2980 RMK AO2 SLP090 T02060117

More Conditions Fewer Conditions

Pressure 29.80 in
Visibility 10.0 miles
Clouds Scattered Clouds 12000 ft
Dew Point 37 °F
Humidity 36%
Rainfall 0.00 in
Snow Depth 0 in , 0 in , 0 in
UV 0 out of 12
Pollen 5.10 out of 12
Air Quality Not available.
Flu Activity Not available.
METAR KGGW 200053Z AUTO 30004KT 10SM SCT120 21/12 A2980 RMK AO2 SLP090 T02060117

More Conditions Fewer Conditions

10-Day Weather Forecast

Almanac

Astronomy

Sep. 19, 2014 Rise Set
Actual Time 6:48 AM MDT 7:09 PM MDT
Civil Twilight 6:17 AM MDT 7:41 PM MDT
Nautical Twilight 5:40 AM MDT 8:17 PM MDT
Astronomical Twilight 5:02 AM MDT 8:55 PM MDT
Moon 2:20 AM MDT (9/19) 4:53 PM MDT (9/19)
Length of Visible Light 13h 23m
Length of Day
12h 21m
Tomorrow will be 3m 29s shorter.
Waning Crescent, 16% of the Moon is Illuminated
Today
Waning Crescent
Sep 24
New
Oct 1
First Quarter
Oct 8
Full
Oct 15
Last Quarter

Today's Extremes

State Highs State Lows

Community

WunderPhotos

Upload Photos

1,754,756 photos uploaded!

WunderBlogs® & News

Nearby

Snow Depth

Station Depth Elevation
Mule Creek 0 in 8300 ft
Stahl Peak 0 in 6030 ft
Spur Park 0 in 8100 ft
Sacajawea 0 in 6550 ft
Nevada Ridge 0 in 7020 ft

Earthquake Activity

City Distance Mag. Time & Date
No recent earthquake activity has been reported nearby.
Minimum magnitude displayed is 2.5.

Coastal Water Temperatures

Place Temperature
No Stations Reporting

Nearby Weather Stations